Ana Sayfa
METAR-TAF:

METAR-TAF

Havaalanları :

Ambon, Endonezya

Enlem: 03-42S, Boylam: 128-05E, yükseklik: 12 m

Güncel hava durumu gözlemi

Rapor saat 11:00 UTC de 7 saat ve 19 dakika önce yapıldı.
Rüzgar kuzey/kuzeybatıdan 8 kt
Sıcaklık 27°C
Nem 89%
Basınç 1007 hPa
Görüş mesafesi 10 km veya daha fazla
1900 ft yükseklikte az bulutlu

METAR: WAPP 101100Z 33008KT 9999 FEW019 27/25 Q1007 NOSIG

Saat: 03:19 (18:19 UTC)

Tahmin

Rapor saat 17:00 UTC de 1 saat ve 19 dakika önce yapıldı.
Ayın 10'si saat 18 UTC'den ayın 11'si saat 18 UTC'ye kadar geçerli Tahmin
Rüzgar kuzey/kuzeybatıdan 6 kt
Görüş mesafesi 10 km veya daha fazla
1800 ft yükseklikte parçalı bulutlu

TAF: WAPP 101700Z 1018/1118 34006KT 9999 SCT018

4.000'den fazla havaalanı için hava durumu gözlemleri ve tahminleri (METAR ve TAF raporları).

Kullanılabilir istasyonlar harita üzerinde sarı ve kırmızı noktalarla gösterilir.

İstasyonun adını görmek için fareyi noktanın üzerinde gezdirin.

Sonrasında hava gözlem ve tahminlerini görmek için tıklayın.

Haritayı değiştirmek için: yaklaştırmak için siyah artı işaretli yeşil düğmeye ve uzaklaştırmak için de eksi işaretli düğmeye hızla tıklayın; bitişik haritalar için yeşil okları kullanın.


METAR-TAF: